createdAt,value
2022-08-28T00:00:14.052Z,18.96
2022-08-28T00:02:40.971Z,18.93
2022-08-28T00:05:09.298Z,18.88
2022-08-28T00:07:36.036Z,18.86
2022-08-28T00:10:05.764Z,18.83
2022-08-28T00:12:32.375Z,18.80
2022-08-28T00:14:59.493Z,18.83
2022-08-28T00:17:25.944Z,18.82
2022-08-28T00:19:52.404Z,18.80
2022-08-28T00:22:19.081Z,18.75
2022-08-28T00:24:45.753Z,18.70
2022-08-28T00:27:30.688Z,18.74
2022-08-28T00:29:57.148Z,18.72
2022-08-28T00:32:25.165Z,18.65
2022-08-28T00:34:52.299Z,18.57
2022-08-28T00:37:19.023Z,18.57
2022-08-28T00:39:46.366Z,18.62
2022-08-28T00:42:13.787Z,18.62
2022-08-28T00:44:40.549Z,18.61
2022-08-28T00:47:07.084Z,18.59
2022-08-28T00:49:37.506Z,18.63
2022-08-28T00:52:08.665Z,18.65
2022-08-28T00:55:03.126Z,18.62
2022-08-28T00:57:40.862Z,18.56
2022-08-28T01:00:13.707Z,18.53
2022-08-28T01:02:40.496Z,18.55
2022-08-28T01:05:09.654Z,18.39
2022-08-28T01:07:38.068Z,18.28
2022-08-28T01:10:09.587Z,18.27
2022-08-28T01:12:36.133Z,18.24
2022-08-28T01:15:14.128Z,18.28
2022-08-28T01:17:46.415Z,18.32
2022-08-28T01:20:17.337Z,18.31
2022-08-28T01:23:21.414Z,18.35
2022-08-28T01:25:47.946Z,18.18
2022-08-28T01:28:14.636Z,18.21
2022-08-28T01:30:44.938Z,18.26
2022-08-28T01:33:12.090Z,18.31
2022-08-28T01:35:41.673Z,18.28
2022-08-28T01:38:08.196Z,18.21
2022-08-28T01:40:39.542Z,18.16
2022-08-28T01:43:19.251Z,18.11
2022-08-28T01:45:49.173Z,18.15
2022-08-28T01:48:16.576Z,18.20
2022-08-28T01:50:43.552Z,17.98
2022-08-28T01:53:14.515Z,17.94
2022-08-28T01:55:42.549Z,17.89
2022-08-28T01:58:10.714Z,17.92
2022-08-28T02:00:38.716Z,17.94
2022-08-28T02:03:06.932Z,17.84
2022-08-28T02:05:35.120Z,17.92
2022-08-28T02:08:03.875Z,17.95
2022-08-28T02:10:32.603Z,17.89
2022-08-28T02:13:00.112Z,17.84
2022-08-28T02:15:29.349Z,17.87
2022-08-28T02:17:56.054Z,17.89
2022-08-28T02:20:24.079Z,17.91
2022-08-28T02:22:50.804Z,17.87
2022-08-28T02:25:18.754Z,17.88
2022-08-28T02:27:46.084Z,17.88
2022-08-28T02:30:14.675Z,17.91
2022-08-28T02:32:41.222Z,17.84
2022-08-28T02:35:12.217Z,17.80
2022-08-28T02:37:39.703Z,17.79
2022-08-28T02:40:10.878Z,17.72
2022-08-28T02:42:37.450Z,17.72
2022-08-28T02:45:04.275Z,17.69
2022-08-28T02:47:31.807Z,17.71
2022-08-28T02:49:58.367Z,17.74
2022-08-28T02:52:24.852Z,17.71
2022-08-28T02:54:51.338Z,17.75
2022-08-28T02:57:17.848Z,17.55
2022-08-28T02:59:44.570Z,17.62
2022-08-28T03:02:11.289Z,17.59
2022-08-28T03:04:38.093Z,17.49
2022-08-28T03:07:07.361Z,17.53
2022-08-28T03:09:33.960Z,17.58
2022-08-28T03:12:00.552Z,17.61
2022-08-28T03:14:27.758Z,17.64
2022-08-28T03:16:54.331Z,17.60
2022-08-28T03:19:20.851Z,17.60
2022-08-28T03:21:47.600Z,17.54
2022-08-28T03:24:15.148Z,17.56
2022-08-28T03:26:42.382Z,17.44
2022-08-28T03:29:08.852Z,17.46
2022-08-28T03:31:36.324Z,17.42
2022-08-28T03:34:02.921Z,17.42
2022-08-28T03:36:29.844Z,17.38
2022-08-28T03:38:59.309Z,17.39
2022-08-28T03:41:29.070Z,17.31
2022-08-28T03:44:00.635Z,17.30
2022-08-28T03:46:29.305Z,17.30
2022-08-28T03:48:55.844Z,17.26
2022-08-28T03:51:29.663Z,17.32
2022-08-28T03:53:58.469Z,17.28
2022-08-28T03:56:27.311Z,17.31
2022-08-28T03:58:57.443Z,17.27
2022-08-28T04:01:24.166Z,17.28
2022-08-28T04:03:50.714Z,17.09
2022-08-28T04:06:17.529Z,17.11
2022-08-28T04:08:43.972Z,17.16
2022-08-28T04:11:10.743Z,17.12
2022-08-28T04:13:37.287Z,17.12
2022-08-28T04:16:10.594Z,17.08
2022-08-28T04:18:39.916Z,17.01
2022-08-28T04:21:12.937Z,17.06
2022-08-28T04:23:43.214Z,16.99
2022-08-28T04:26:15.490Z,16.98
2022-08-28T04:28:42.112Z,16.97
2022-08-28T04:31:09.064Z,16.76
2022-08-28T04:33:36.450Z,16.75
2022-08-28T04:36:15.383Z,16.78
2022-08-28T04:38:44.141Z,16.73
2022-08-28T04:41:14.008Z,16.60
2022-08-28T04:43:41.065Z,16.61
2022-08-28T04:46:11.398Z,16.68
2022-08-28T04:48:38.852Z,16.62
2022-08-28T04:51:06.845Z,16.70
2022-08-28T04:53:33.338Z,16.77
2022-08-28T04:56:00.608Z,16.78
2022-08-28T04:58:27.733Z,16.73
2022-08-28T05:00:55.101Z,16.78
2022-08-28T05:03:22.221Z,16.73
2022-08-28T05:05:52.586Z,16.78
2022-08-28T05:08:22.524Z,16.78
2022-08-28T05:10:50.780Z,16.79
2022-08-28T05:13:18.479Z,16.77
2022-08-28T05:15:47.727Z,16.74
2022-08-28T05:18:16.019Z,16.71
2022-08-28T05:20:46.493Z,16.70
2022-08-28T05:23:14.757Z,16.66
2022-08-28T05:25:44.559Z,16.76
2022-08-28T05:28:12.630Z,16.69
2022-08-28T05:30:40.587Z,16.74
2022-08-28T05:33:08.470Z,16.71
2022-08-28T05:35:38.275Z,16.69
2022-08-28T05:38:05.494Z,16.69
2022-08-28T05:40:32.073Z,16.72
2022-08-28T05:42:58.611Z,16.80
2022-08-28T05:45:25.330Z,16.75
2022-08-28T05:47:52.147Z,16.66
2022-08-28T05:50:19.144Z,16.58
2022-08-28T05:52:45.672Z,16.66
2022-08-28T05:55:13.168Z,16.72
2022-08-28T05:57:40.611Z,16.76
2022-08-28T06:00:13.412Z,16.78
2022-08-28T06:02:44.380Z,16.83
2022-08-28T06:05:13.061Z,16.84
2022-08-28T06:07:41.065Z,16.88
2022-08-28T06:10:08.004Z,16.89
2022-08-28T06:12:37.592Z,16.92
2022-08-28T06:15:05.538Z,16.89
2022-08-28T06:17:32.003Z,16.90
2022-08-28T06:19:58.466Z,16.84
2022-08-28T06:22:24.910Z,16.84
2022-08-28T06:24:51.374Z,16.88
2022-08-28T06:27:17.897Z,16.90
2022-08-28T06:29:44.727Z,16.96
2022-08-28T06:32:11.463Z,16.85
2022-08-28T06:34:38.031Z,16.80
2022-08-28T06:37:04.748Z,16.71
2022-08-28T06:39:31.219Z,16.82
2022-08-28T06:41:57.711Z,16.82
2022-08-28T06:44:24.268Z,16.90
2022-08-28T06:46:53.909Z,17.00
2022-08-28T06:49:20.863Z,17.05
2022-08-28T06:51:47.380Z,17.06
2022-08-28T06:54:21.169Z,17.00
2022-08-28T06:56:49.417Z,16.95
2022-08-28T06:59:15.943Z,16.97
2022-08-28T07:01:42.544Z,16.96
2022-08-28T07:04:11.468Z,17.02
2022-08-28T07:06:40.881Z,16.99
2022-08-28T07:09:11.109Z,16.90
2022-08-28T07:11:38.488Z,16.92
2022-08-28T07:14:05.310Z,16.98
2022-08-28T07:16:35.082Z,16.94
2022-08-28T07:19:04.468Z,16.95
2022-08-28T07:21:33.262Z,16.87
2022-08-28T07:24:05.112Z,16.97
2022-08-28T07:26:31.973Z,17.01
2022-08-28T07:29:09.928Z,17.08
2022-08-28T07:31:41.743Z,17.18
2022-08-28T07:34:10.935Z,17.19
2022-08-28T07:36:38.456Z,17.11
2022-08-28T07:39:06.040Z,17.10
2022-08-28T07:41:35.634Z,17.09
2022-08-28T07:44:21.492Z,17.03
2022-08-28T07:46:48.124Z,17.02
2022-08-28T07:49:18.425Z,16.97
2022-08-28T07:51:47.041Z,17.02
2022-08-28T07:54:17.983Z,17.05
2022-08-28T07:56:46.151Z,17.05
2022-08-28T07:59:16.649Z,17.03
2022-08-28T08:01:47.005Z,17.06
2022-08-28T08:04:15.982Z,17.07
2022-08-28T08:06:45.838Z,17.08
2022-08-28T08:09:16.009Z,17.08
2022-08-28T08:11:43.045Z,17.05
2022-08-28T08:14:10.880Z,17.09
2022-08-28T08:16:43.414Z,17.15
2022-08-28T08:19:13.987Z,17.16
2022-08-28T08:21:46.826Z,17.19
2022-08-28T08:24:21.197Z,17.23
2022-08-28T08:26:58.846Z,17.25
2022-08-28T08:29:33.161Z,17.32
2022-08-28T08:32:06.017Z,17.32
2022-08-28T08:34:36.452Z,17.32
2022-08-28T08:37:03.305Z,17.36
2022-08-28T08:39:31.784Z,17.37
2022-08-28T08:42:02.750Z,17.37
2022-08-28T08:44:34.010Z,17.38
2022-08-28T08:47:38.785Z,17.42
2022-08-28T08:50:19.497Z,17.44
2022-08-28T08:52:49.522Z,17.47
2022-08-28T08:55:32.162Z,17.50
2022-08-28T08:58:11.336Z,17.56
2022-08-28T09:00:50.427Z,17.61
2022-08-28T09:03:27.687Z,17.66
2022-08-28T09:06:00.429Z,17.73
2022-08-28T09:08:34.170Z,17.78
2022-08-28T09:11:18.169Z,17.83
2022-08-28T09:14:02.619Z,17.82
2022-08-28T09:16:33.147Z,17.77
2022-08-28T09:19:03.281Z,17.78
2022-08-28T09:21:42.959Z,17.86
2022-08-28T09:24:19.849Z,17.91
2022-08-28T09:27:27.088Z,17.91
2022-08-28T09:30:00.008Z,17.95
2022-08-28T09:32:57.872Z,18.07
2022-08-28T09:35:24.268Z,18.09
2022-08-28T09:37:51.456Z,18.07
2022-08-28T09:40:47.107Z,18.10
2022-08-28T09:43:27.525Z,18.20
2022-08-28T09:46:01.461Z,18.29
2022-08-28T09:48:43.477Z,18.40
2022-08-28T09:51:26.783Z,18.31
2022-08-28T09:53:56.415Z,18.36
2022-08-28T09:56:35.023Z,18.33
2022-08-28T09:59:13.995Z,18.35
2022-08-28T10:01:46.810Z,18.33
2022-08-28T10:04:44.384Z,18.29
2022-08-28T10:07:24.203Z,18.29
2022-08-28T10:10:06.446Z,18.39
2022-08-28T10:12:47.303Z,18.44
2022-08-28T10:15:43.508Z,18.42
2022-08-28T10:18:49.255Z,18.38
2022-08-28T10:21:35.705Z,18.45
2022-08-28T10:24:37.821Z,18.49
2022-08-28T10:27:17.186Z,18.72
2022-08-28T10:29:52.729Z,18.71
2022-08-28T10:32:28.208Z,18.82
2022-08-28T10:35:03.643Z,18.78
2022-08-28T10:37:30.609Z,18.87
2022-08-28T10:40:00.467Z,18.87
2022-08-28T10:42:39.255Z,18.97
2022-08-28T10:45:14.035Z,18.95
2022-08-28T10:47:45.780Z,18.97
2022-08-28T10:50:22.423Z,18.88
2022-08-28T10:52:55.721Z,18.93
2022-08-28T10:55:27.584Z,19.10
2022-08-28T10:57:59.931Z,19.19
2022-08-28T11:00:28.521Z,19.19
2022-08-28T11:02:59.383Z,19.13
2022-08-28T11:05:32.849Z,19.10
2022-08-28T11:08:05.117Z,19.32
2022-08-28T11:10:38.326Z,19.47
2022-08-28T11:13:08.431Z,19.53
2022-08-28T11:15:37.480Z,19.62
2022-08-28T11:18:16.354Z,19.59
2022-08-28T11:20:55.561Z,19.51
2022-08-28T11:23:30.076Z,19.47
2022-08-28T11:26:02.269Z,19.66
2022-08-28T11:28:34.655Z,19.68
2022-08-28T11:31:01.076Z,19.68
2022-08-28T11:33:43.917Z,19.90
2022-08-28T11:36:17.984Z,19.85
2022-08-28T11:38:44.734Z,19.90
2022-08-28T11:41:22.724Z,19.83
2022-08-28T11:44:13.807Z,19.86
2022-08-28T11:46:42.059Z,19.84
2022-08-28T11:49:24.701Z,20.09
2022-08-28T11:52:01.734Z,20.15
2022-08-28T11:55:03.600Z,20.00
2022-08-28T12:00:55.739Z,20.09
2022-08-28T12:03:40.810Z,20.20
2022-08-28T12:06:08.978Z,20.34
2022-08-28T12:08:44.652Z,20.33
2022-08-28T12:11:40.281Z,20.51
2022-08-28T12:14:13.484Z,20.76
2022-08-28T12:16:58.298Z,20.86
2022-08-28T12:19:51.225Z,20.97
2022-08-28T12:22:26.394Z,20.98
2022-08-28T12:24:57.992Z,21.05
2022-08-28T12:27:25.533Z,21.13
2022-08-28T12:29:55.651Z,21.31
2022-08-28T12:32:57.529Z,21.51
2022-08-28T12:35:29.593Z,22.04
2022-08-28T12:37:57.266Z,22.34
2022-08-28T12:40:27.373Z,22.66
2022-08-28T12:43:05.349Z,22.86
2022-08-28T12:45:49.794Z,23.05
2022-08-28T12:48:21.942Z,23.27
2022-08-28T12:50:56.157Z,23.40
2022-08-28T12:53:25.395Z,23.58
2022-08-28T12:55:53.500Z,23.61
2022-08-28T12:58:35.165Z,23.75
2022-08-28T13:01:12.911Z,23.96
2022-08-28T13:04:04.377Z,23.88
2022-08-28T13:06:30.953Z,23.71
2022-08-28T13:09:00.782Z,23.47
2022-08-28T13:11:40.174Z,23.54
2022-08-28T13:14:08.445Z,23.73
2022-08-28T13:16:43.681Z,23.83
2022-08-28T13:19:27.009Z,23.93
2022-08-28T13:22:00.591Z,23.49
2022-08-28T13:24:27.355Z,23.70
2022-08-28T13:27:03.257Z,23.70
2022-08-28T13:29:30.843Z,23.46
2022-08-28T13:32:00.232Z,23.30
2022-08-28T13:34:29.461Z,23.27
2022-08-28T13:37:01.884Z,23.29
2022-08-28T13:39:32.776Z,23.40
2022-08-28T13:42:07.475Z,23.38
2022-08-28T13:44:36.527Z,23.41
2022-08-28T13:47:06.795Z,23.16
2022-08-28T13:49:34.964Z,23.10
2022-08-28T13:52:05.436Z,22.90
2022-08-28T13:54:32.204Z,22.71
2022-08-28T13:57:01.180Z,22.53
2022-08-28T13:59:28.823Z,22.46
2022-08-28T14:02:17.664Z,22.43
2022-08-28T14:04:44.951Z,22.37
2022-08-28T14:07:13.324Z,22.42
2022-08-28T14:09:40.771Z,22.46
2022-08-28T14:12:09.819Z,22.43
2022-08-28T14:14:37.776Z,22.50
2022-08-28T14:17:05.517Z,22.36
2022-08-28T14:19:32.145Z,22.26
2022-08-28T14:21:59.842Z,22.24
2022-08-28T14:24:27.313Z,22.16
2022-08-28T14:26:54.356Z,22.16
2022-08-28T14:29:21.458Z,22.26
2022-08-28T14:31:48.268Z,22.27
2022-08-28T14:34:18.565Z,22.19
2022-08-28T14:36:46.149Z,22.24
2022-08-28T14:39:13.783Z,22.23
2022-08-28T14:41:46.764Z,22.17
2022-08-28T14:44:13.726Z,22.26
2022-08-28T14:46:44.360Z,22.27
2022-08-28T14:49:15.252Z,22.24
2022-08-28T14:51:43.785Z,22.27
2022-08-28T14:54:12.377Z,22.22
2022-08-28T14:56:39.031Z,22.29
2022-08-28T14:59:07.802Z,22.31
2022-08-28T15:01:40.812Z,22.32
2022-08-28T15:04:11.457Z,22.23
2022-08-28T15:06:39.163Z,22.22
2022-08-28T15:09:05.747Z,22.25
2022-08-28T15:11:32.345Z,22.22
2022-08-28T15:13:58.804Z,22.20
2022-08-28T15:16:30.371Z,22.15
2022-08-28T15:18:58.435Z,22.13
2022-08-28T15:21:38.288Z,22.18
2022-08-28T15:24:06.059Z,22.10
2022-08-28T15:26:32.716Z,22.09
2022-08-28T15:29:03.207Z,22.08
2022-08-28T15:31:31.566Z,22.19
2022-08-28T15:33:58.952Z,22.17
2022-08-28T15:36:25.463Z,22.38
2022-08-28T15:39:10.430Z,22.36
2022-08-28T15:41:37.976Z,22.47
2022-08-28T15:44:05.283Z,22.44
2022-08-28T15:46:34.737Z,22.41
2022-08-28T15:49:03.845Z,22.42
2022-08-28T15:51:35.024Z,22.41
2022-08-28T15:54:02.755Z,22.45
2022-08-28T15:56:29.267Z,22.54
2022-08-28T15:58:55.787Z,22.51
2022-08-28T16:01:22.579Z,22.55
2022-08-28T16:03:49.292Z,22.53
2022-08-28T16:06:18.692Z,22.55
2022-08-28T16:08:45.883Z,22.52
2022-08-28T16:11:19.190Z,22.55
2022-08-28T16:13:46.448Z,22.56
2022-08-28T16:16:12.993Z,22.64
2022-08-28T16:18:39.783Z,22.69
2022-08-28T16:21:06.895Z,22.67
2022-08-28T16:23:33.906Z,22.67
2022-08-28T16:26:01.856Z,22.65
2022-08-28T16:28:28.486Z,22.74
2022-08-28T16:30:55.134Z,22.73
2022-08-28T16:33:22.277Z,22.73
2022-08-28T16:35:51.617Z,22.72
2022-08-28T16:38:22.752Z,22.74
2022-08-28T16:40:49.440Z,22.70
2022-08-28T16:43:16.165Z,22.74
2022-08-28T16:45:44.889Z,22.84
2022-08-28T16:48:14.097Z,22.90
2022-08-28T16:50:43.012Z,22.82
2022-08-28T16:53:10.337Z,22.77
2022-08-28T16:55:38.310Z,22.84
2022-08-28T16:58:05.299Z,22.87
2022-08-28T17:00:31.829Z,22.81
2022-08-28T17:02:58.489Z,22.77
2022-08-28T17:05:25.231Z,22.82
2022-08-28T17:07:52.028Z,22.86
2022-08-28T17:10:21.439Z,22.78
2022-08-28T17:12:47.974Z,22.79
2022-08-28T17:15:14.829Z,22.77
2022-08-28T17:17:42.539Z,22.76
2022-08-28T17:20:30.308Z,22.76
2022-08-28T17:22:56.875Z,22.73
2022-08-28T17:25:24.077Z,22.56
2022-08-28T17:27:50.972Z,22.52
2022-08-28T17:30:19.174Z,22.44
2022-08-28T17:32:46.513Z,22.45
2022-08-28T17:35:13.496Z,22.30
2022-08-28T17:37:40.749Z,22.31
2022-08-28T17:40:09.896Z,22.26
2022-08-28T17:42:36.549Z,22.15
2022-08-28T17:45:06.486Z,22.03
2022-08-28T17:47:33.025Z,21.99
2022-08-28T17:50:01.261Z,21.90
2022-08-28T17:52:29.447Z,21.86
2022-08-28T17:54:56.132Z,21.85
2022-08-28T17:57:24.171Z,21.81
2022-08-28T17:59:50.992Z,21.79
2022-08-28T18:02:17.788Z,21.76
2022-08-28T18:04:44.459Z,21.69
2022-08-28T18:07:11.256Z,21.52
2022-08-28T18:09:40.221Z,21.46
2022-08-28T18:12:12.192Z,21.37
2022-08-28T18:14:40.378Z,21.32
2022-08-28T18:17:09.152Z,21.29
2022-08-28T18:19:36.819Z,21.20
2022-08-28T18:22:03.337Z,21.12
2022-08-28T18:24:30.995Z,21.09
2022-08-28T18:26:58.756Z,20.99
2022-08-28T18:29:25.243Z,20.88
2022-08-28T18:31:52.052Z,20.88
2022-08-28T18:34:18.632Z,20.84
2022-08-28T18:36:45.180Z,20.83
2022-08-28T18:39:11.787Z,20.75
2022-08-28T18:41:43.871Z,20.65
2022-08-28T18:44:11.722Z,20.64
2022-08-28T18:46:38.458Z,20.55
2022-08-28T18:49:05.008Z,20.55
2022-08-28T18:51:32.649Z,20.48
2022-08-28T18:54:04.380Z,20.42
2022-08-28T18:56:33.621Z,20.35
2022-08-28T18:59:02.019Z,20.37
2022-08-28T19:01:28.614Z,20.33
2022-08-28T19:03:55.838Z,20.17
2022-08-28T19:06:22.764Z,20.19
2022-08-28T19:08:49.357Z,20.17
2022-08-28T19:11:16.343Z,20.15
2022-08-28T19:13:43.622Z,20.13
2022-08-28T19:16:12.519Z,20.15
2022-08-28T19:18:39.095Z,20.13
2022-08-28T19:21:07.999Z,20.11
2022-08-28T19:23:35.347Z,20.09
2022-08-28T19:26:02.443Z,20.07
2022-08-28T19:28:29.026Z,19.99
2022-08-28T19:30:55.674Z,19.93
2022-08-28T19:33:22.431Z,19.83
2022-08-28T19:35:50.062Z,19.83
2022-08-28T19:38:16.737Z,19.81
2022-08-28T19:40:45.431Z,19.80
2022-08-28T19:43:16.546Z,19.74
2022-08-28T19:45:44.868Z,19.64
2022-08-28T19:48:12.135Z,19.63
2022-08-28T19:50:39.169Z,19.62
2022-08-28T19:53:05.879Z,19.55
2022-08-28T19:55:32.710Z,19.57
2022-08-28T19:57:59.447Z,19.55
2022-08-28T20:00:32.903Z,19.45
2022-08-28T20:02:59.712Z,19.44
2022-08-28T20:05:26.278Z,19.43
2022-08-28T20:07:53.292Z,19.38
2022-08-28T20:10:21.328Z,19.36
2022-08-28T20:12:48.745Z,19.31
2022-08-28T20:15:17.623Z,19.25
2022-08-28T20:17:50.156Z,19.27
2022-08-28T20:20:23.702Z,19.26
2022-08-28T20:22:53.933Z,19.24
2022-08-28T20:25:20.896Z,19.21
2022-08-28T20:27:47.363Z,19.16
2022-08-28T20:30:16.173Z,19.14
2022-08-28T20:32:42.812Z,19.15
2022-08-28T20:35:11.576Z,19.14
2022-08-28T20:37:41.042Z,19.10
2022-08-28T20:40:16.688Z,19.02
2022-08-28T20:42:44.035Z,19.00
2022-08-28T20:45:11.000Z,18.96
2022-08-28T20:47:37.534Z,18.91
2022-08-28T20:50:04.434Z,18.84
2022-08-28T20:52:30.931Z,18.80
2022-08-28T20:54:58.087Z,18.73
2022-08-28T20:57:24.767Z,18.69
2022-08-28T20:59:52.262Z,18.61
2022-08-28T21:02:22.679Z,18.59
2022-08-28T21:04:49.772Z,18.60
2022-08-28T21:07:18.478Z,18.53
2022-08-28T21:10:05.087Z,18.59
2022-08-28T21:12:33.567Z,18.53
2022-08-28T21:15:00.243Z,18.50
2022-08-28T21:17:29.739Z,18.48
2022-08-28T21:19:59.008Z,18.51
2022-08-28T21:22:25.585Z,18.52
2022-08-28T21:24:52.221Z,18.50
2022-08-28T21:27:18.835Z,18.46
2022-08-28T21:29:46.085Z,18.42
2022-08-28T21:32:12.905Z,18.44
2022-08-28T21:34:39.727Z,18.38
2022-08-28T21:37:06.565Z,18.36
2022-08-28T21:39:33.660Z,18.38
2022-08-28T21:42:00.235Z,18.32
2022-08-28T21:44:26.734Z,18.26
2022-08-28T21:46:53.276Z,18.27
2022-08-28T21:49:22.593Z,18.25
2022-08-28T21:51:49.301Z,18.24
2022-08-28T21:54:15.982Z,18.19
2022-08-28T21:56:42.693Z,18.21
2022-08-28T21:59:09.197Z,18.20
2022-08-28T22:01:35.796Z,18.15
2022-08-28T22:04:02.888Z,18.14
2022-08-28T22:06:29.713Z,18.11
2022-08-28T22:08:57.458Z,18.12
2022-08-28T22:11:24.841Z,18.06
2022-08-28T22:13:52.184Z,18.03
2022-08-28T22:16:19.292Z,18.03
2022-08-28T22:18:45.928Z,17.97
2022-08-28T22:21:33.185Z,17.94
2022-08-28T22:23:59.903Z,17.92
2022-08-28T22:26:27.045Z,17.90
2022-08-28T22:28:53.627Z,17.89
2022-08-28T22:31:20.949Z,17.87
2022-08-28T22:33:47.424Z,17.78
2022-08-28T22:36:13.911Z,17.82
2022-08-28T22:38:41.225Z,17.78
2022-08-28T22:41:13.535Z,17.76
2022-08-28T22:43:40.005Z,17.72
2022-08-28T22:46:08.868Z,17.67
2022-08-28T22:48:35.648Z,17.63
2022-08-28T22:51:09.793Z,17.61
2022-08-28T22:53:36.732Z,17.60
2022-08-28T22:56:04.276Z,17.57
2022-08-28T22:58:32.671Z,17.54
2022-08-28T23:01:01.843Z,17.58
2022-08-28T23:03:28.648Z,17.52
2022-08-28T23:05:55.223Z,17.46
2022-08-28T23:08:21.696Z,17.45
2022-08-28T23:10:58.879Z,17.46
2022-08-28T23:13:25.950Z,17.45
2022-08-28T23:15:52.532Z,17.42
2022-08-28T23:18:19.055Z,17.38
2022-08-28T23:20:45.574Z,17.38
2022-08-28T23:23:12.764Z,17.41
2022-08-28T23:25:39.799Z,17.35
2022-08-28T23:28:06.743Z,17.31
2022-08-28T23:30:33.410Z,17.31
2022-08-28T23:32:59.946Z,17.27
2022-08-28T23:35:26.561Z,17.13
2022-08-28T23:37:53.082Z,16.91
2022-08-28T23:40:22.474Z,16.77
2022-08-28T23:42:49.259Z,16.85
2022-08-28T23:45:17.493Z,16.92
2022-08-28T23:47:45.303Z,16.97
2022-08-28T23:50:18.276Z,16.98
2022-08-28T23:52:45.264Z,16.88
2022-08-28T23:55:13.536Z,16.88
2022-08-28T23:57:40.097Z,16.89
